sensor_id;sensor_type;location;lat;lon;timestamp;P1;durP1;ratioP1;P2;durP2;ratioP2
54545;SDS011;40444;45.184;9.850;2022-12-24T00:01:35;80.13;;;50.97;;
54545;SDS011;40444;45.184;9.850;2022-12-24T00:04:04;80.75;;;49.60;;
54545;SDS011;40444;45.184;9.850;2022-12-24T00:06:33;77.57;;;50.40;;
54545;SDS011;40444;45.184;9.850;2022-12-24T00:09:02;78.32;;;49.75;;
54545;SDS011;40444;45.184;9.850;2022-12-24T00:11:30;74.28;;;49.72;;
54545;SDS011;40444;45.184;9.850;2022-12-24T00:13:59;80.95;;;50.75;;
54545;SDS011;40444;45.184;9.850;2022-12-24T00:16:27;81.28;;;51.50;;
54545;SDS011;40444;45.184;9.850;2022-12-24T00:18:56;78.60;;;51.60;;
54545;SDS011;40444;45.184;9.850;2022-12-24T00:21:25;75.13;;;48.50;;
54545;SDS011;40444;45.184;9.850;2022-12-24T00:23:53;79.68;;;51.50;;
54545;SDS011;40444;45.184;9.850;2022-12-24T00:26:21;77.22;;;50.28;;
54545;SDS011;40444;45.184;9.850;2022-12-24T00:28:50;78.43;;;49.05;;
54545;SDS011;40444;45.184;9.850;2022-12-24T00:31:19;77.45;;;50.75;;
54545;SDS011;40444;45.184;9.850;2022-12-24T00:33:47;73.32;;;50.33;;
54545;SDS011;40444;45.184;9.850;2022-12-24T00:36:16;80.65;;;49.70;;
54545;SDS011;40444;45.184;9.850;2022-12-24T00:38:46;78.28;;;51.13;;
54545;SDS011;40444;45.184;9.850;2022-12-24T00:41:14;78.05;;;51.00;;
54545;SDS011;40444;45.184;9.850;2022-12-24T00:43:56;79.75;;;52.42;;
54545;SDS011;40444;45.184;9.850;2022-12-24T00:46:28;80.88;;;51.25;;
54545;SDS011;40444;45.184;9.850;2022-12-24T00:49:00;74.25;;;50.53;;
54545;SDS011;40444;45.184;9.850;2022-12-24T00:51:29;86.25;;;52.75;;
54545;SDS011;40444;45.184;9.850;2022-12-24T00:53:57;80.00;;;50.63;;
54545;SDS011;40444;45.184;9.850;2022-12-24T00:56:26;77.78;;;49.75;;
54545;SDS011;40444;45.184;9.850;2022-12-24T00:58:54;77.05;;;51.78;;
54545;SDS011;40444;45.184;9.850;2022-12-24T01:01:23;75.80;;;50.78;;
54545;SDS011;40444;45.184;9.850;2022-12-24T01:03:53;77.85;;;50.00;;
54545;SDS011;40444;45.184;9.850;2022-12-24T01:06:42;75.63;;;48.17;;
54545;SDS011;40444;45.184;9.850;2022-12-24T01:09:11;77.07;;;49.50;;
54545;SDS011;40444;45.184;9.850;2022-12-24T01:11:39;77.60;;;49.45;;
54545;SDS011;40444;45.184;9.850;2022-12-24T01:14:08;76.90;;;48.38;;
54545;SDS011;40444;45.184;9.850;2022-12-24T01:16:36;71.60;;;48.40;;
54545;SDS011;40444;45.184;9.850;2022-12-24T01:19:05;75.97;;;48.95;;
54545;SDS011;40444;45.184;9.850;2022-12-24T01:21:33;78.65;;;50.00;;
54545;SDS011;40444;45.184;9.850;2022-12-24T01:24:02;73.75;;;48.95;;
54545;SDS011;40444;45.184;9.850;2022-12-24T01:26:30;77.25;;;49.38;;
54545;SDS011;40444;45.184;9.850;2022-12-24T01:28:58;74.95;;;50.22;;
54545;SDS011;40444;45.184;9.850;2022-12-24T01:31:26;80.40;;;50.30;;
54545;SDS011;40444;45.184;9.850;2022-12-24T01:33:55;80.40;;;50.67;;
54545;SDS011;40444;45.184;9.850;2022-12-24T01:36:23;76.70;;;49.13;;
54545;SDS011;40444;45.184;9.850;2022-12-24T01:38:52;77.38;;;49.67;;
54545;SDS011;40444;45.184;9.850;2022-12-24T01:41:20;81.65;;;51.55;;
54545;SDS011;40444;45.184;9.850;2022-12-24T01:44:44;80.32;;;51.13;;
54545;SDS011;40444;45.184;9.850;2022-12-24T01:47:16;77.97;;;49.58;;
54545;SDS011;40444;45.184;9.850;2022-12-24T01:49:56;73.25;;;48.17;;
54545;SDS011;40444;45.184;9.850;2022-12-24T01:52:28;79.75;;;50.28;;
54545;SDS011;40444;45.184;9.850;2022-12-24T01:55:05;75.80;;;50.13;;
54545;SDS011;40444;45.184;9.850;2022-12-24T01:57:37;77.07;;;51.25;;
54545;SDS011;40444;45.184;9.850;2022-12-24T02:00:10;80.65;;;52.17;;
54545;SDS011;40444;45.184;9.850;2022-12-24T02:02:43;74.57;;;48.38;;
54545;SDS011;40444;45.184;9.850;2022-12-24T02:05:25;78.25;;;50.83;;
54545;SDS011;40444;45.184;9.850;2022-12-24T02:07:57;76.07;;;47.75;;
54545;SDS011;40444;45.184;9.850;2022-12-24T02:10:27;73.45;;;48.53;;
54545;SDS011;40444;45.184;9.850;2022-12-24T02:12:56;73.63;;;46.78;;
54545;SDS011;40444;45.184;9.850;2022-12-24T02:15:27;71.47;;;47.67;;
54545;SDS011;40444;45.184;9.850;2022-12-24T02:18:06;74.55;;;47.90;;
54545;SDS011;40444;45.184;9.850;2022-12-24T02:21:02;75.63;;;49.50;;
54545;SDS011;40444;45.184;9.850;2022-12-24T02:32:01;75.82;;;50.13;;
54545;SDS011;40444;45.184;9.850;2022-12-24T02:34:44;74.90;;;48.75;;
54545;SDS011;40444;45.184;9.850;2022-12-24T02:37:21;85.85;;;51.38;;
54545;SDS011;40444;45.184;9.850;2022-12-24T02:40:03;77.82;;;48.97;;
54545;SDS011;40444;45.184;9.850;2022-12-24T02:42:50;80.38;;;51.55;;
54545;SDS011;40444;45.184;9.850;2022-12-24T02:45:26;79.18;;;51.03;;
54545;SDS011;40444;45.184;9.850;2022-12-24T02:47:57;83.20;;;52.63;;
54545;SDS011;40444;45.184;9.850;2022-12-24T02:50:27;80.53;;;51.15;;
54545;SDS011;40444;45.184;9.850;2022-12-24T02:52:55;86.82;;;51.60;;
54545;SDS011;40444;45.184;9.850;2022-12-24T03:04:10;83.68;;;53.97;;
54545;SDS011;40444;45.184;9.850;2022-12-24T03:07:30;85.88;;;52.17;;
54545;SDS011;40444;45.184;9.850;2022-12-24T03:13:01;83.13;;;51.33;;
54545;SDS011;40444;45.184;9.850;2022-12-24T03:15:40;81.60;;;51.03;;
54545;SDS011;40444;45.184;9.850;2022-12-24T03:18:10;83.47;;;52.15;;
54545;SDS011;40444;45.184;9.850;2022-12-24T03:20:41;86.55;;;52.90;;
54545;SDS011;40444;45.184;9.850;2022-12-24T03:23:13;80.55;;;49.67;;
54545;SDS011;40444;45.184;9.850;2022-12-24T03:25:42;75.15;;;50.30;;
54545;SDS011;40444;45.184;9.850;2022-12-24T03:28:13;78.80;;;49.95;;
54545;SDS011;40444;45.184;9.850;2022-12-24T03:30:43;77.35;;;49.95;;
54545;SDS011;40444;45.184;9.850;2022-12-24T03:33:14;79.95;;;51.47;;
54545;SDS011;40444;45.184;9.850;2022-12-24T03:35:43;78.65;;;49.85;;
54545;SDS011;40444;45.184;9.850;2022-12-24T03:38:12;80.05;;;50.65;;
54545;SDS011;40444;45.184;9.850;2022-12-24T03:40:40;76.68;;;51.13;;
54545;SDS011;40444;45.184;9.850;2022-12-24T03:43:08;80.60;;;51.17;;
54545;SDS011;40444;45.184;9.850;2022-12-24T03:45:37;81.88;;;51.92;;
54545;SDS011;40444;45.184;9.850;2022-12-24T03:48:05;80.85;;;50.75;;
54545;SDS011;40444;45.184;9.850;2022-12-24T03:50:34;80.10;;;50.85;;
54545;SDS011;40444;45.184;9.850;2022-12-24T03:53:02;84.15;;;53.33;;
54545;SDS011;40444;45.184;9.850;2022-12-24T03:55:30;81.35;;;50.50;;
54545;SDS011;40444;45.184;9.850;2022-12-24T03:57:59;82.75;;;51.13;;
54545;SDS011;40444;45.184;9.850;2022-12-24T04:00:27;84.20;;;51.05;;
54545;SDS011;40444;45.184;9.850;2022-12-24T04:02:56;85.55;;;52.20;;
54545;SDS011;40444;45.184;9.850;2022-12-24T04:05:24;87.28;;;53.50;;
54545;SDS011;40444;45.184;9.850;2022-12-24T04:07:52;85.97;;;52.75;;
54545;SDS011;40444;45.184;9.850;2022-12-24T04:10:20;84.95;;;51.67;;
54545;SDS011;40444;45.184;9.850;2022-12-24T04:12:49;80.50;;;52.08;;
54545;SDS011;40444;45.184;9.850;2022-12-24T04:15:17;78.13;;;49.95;;
54545;SDS011;40444;45.184;9.850;2022-12-24T04:17:45;80.35;;;50.72;;
54545;SDS011;40444;45.184;9.850;2022-12-24T04:20:14;80.78;;;50.15;;
54545;SDS011;40444;45.184;9.850;2022-12-24T04:22:42;77.97;;;50.03;;
54545;SDS011;40444;45.184;9.850;2022-12-24T04:25:10;81.57;;;50.58;;
54545;SDS011;40444;45.184;9.850;2022-12-24T04:27:38;75.68;;;50.78;;
54545;SDS011;40444;45.184;9.850;2022-12-24T04:30:07;81.40;;;50.28;;
54545;SDS011;40444;45.184;9.850;2022-12-24T04:32:36;82.72;;;50.10;;
54545;SDS011;40444;45.184;9.850;2022-12-24T04:35:05;79.65;;;49.28;;
54545;SDS011;40444;45.184;9.850;2022-12-24T04:37:33;75.00;;;48.55;;
54545;SDS011;40444;45.184;9.850;2022-12-24T04:40:02;69.88;;;46.08;;
54545;SDS011;40444;45.184;9.850;2022-12-24T04:42:30;75.85;;;48.75;;
54545;SDS011;40444;45.184;9.850;2022-12-24T04:44:59;73.43;;;47.75;;
54545;SDS011;40444;45.184;9.850;2022-12-24T04:47:27;75.05;;;47.42;;
54545;SDS011;40444;45.184;9.850;2022-12-24T04:49:56;71.43;;;47.33;;
54545;SDS011;40444;45.184;9.850;2022-12-24T04:52:24;69.70;;;47.97;;
54545;SDS011;40444;45.184;9.850;2022-12-24T04:54:52;77.50;;;49.85;;
54545;SDS011;40444;45.184;9.850;2022-12-24T04:57:21;79.07;;;49.28;;
54545;SDS011;40444;45.184;9.850;2022-12-24T04:59:49;75.00;;;48.50;;
54545;SDS011;40444;45.184;9.850;2022-12-24T05:02:18;74.30;;;48.92;;
54545;SDS011;40444;45.184;9.850;2022-12-24T05:04:46;78.40;;;51.17;;
54545;SDS011;40444;45.184;9.850;2022-12-24T05:07:15;75.40;;;48.03;;
54545;SDS011;40444;45.184;9.850;2022-12-24T05:09:43;71.60;;;47.42;;
54545;SDS011;40444;45.184;9.850;2022-12-24T05:12:12;76.55;;;46.80;;
54545;SDS011;40444;45.184;9.850;2022-12-24T05:14:40;77.22;;;48.90;;
54545;SDS011;40444;45.184;9.850;2022-12-24T05:17:09;75.07;;;48.75;;
54545;SDS011;40444;45.184;9.850;2022-12-24T05:19:37;76.50;;;49.50;;
54545;SDS011;40444;45.184;9.850;2022-12-24T05:22:06;79.43;;;50.70;;
54545;SDS011;40444;45.184;9.850;2022-12-24T05:24:53;80.60;;;49.13;;
54545;SDS011;40444;45.184;9.850;2022-12-24T05:27:39;77.35;;;47.67;;
54545;SDS011;40444;45.184;9.850;2022-12-24T05:30:15;75.30;;;46.50;;
54545;SDS011;40444;45.184;9.850;2022-12-24T05:32:43;74.28;;;47.25;;
54545;SDS011;40444;45.184;9.850;2022-12-24T05:35:12;73.07;;;46.10;;
54545;SDS011;40444;45.184;9.850;2022-12-24T05:37:40;76.60;;;48.30;;
54545;SDS011;40444;45.184;9.850;2022-12-24T05:40:08;75.70;;;47.30;;
54545;SDS011;40444;45.184;9.850;2022-12-24T05:42:36;76.85;;;49.53;;
54545;SDS011;40444;45.184;9.850;2022-12-24T05:45:05;79.78;;;49.53;;
54545;SDS011;40444;45.184;9.850;2022-12-24T05:47:33;77.75;;;48.42;;
54545;SDS011;40444;45.184;9.850;2022-12-24T05:50:09;72.07;;;48.60;;
54545;SDS011;40444;45.184;9.850;2022-12-24T05:52:37;81.57;;;50.33;;
54545;SDS011;40444;45.184;9.850;2022-12-24T05:55:06;78.43;;;49.13;;
54545;SDS011;40444;45.184;9.850;2022-12-24T05:57:35;78.68;;;50.45;;
54545;SDS011;40444;45.184;9.850;2022-12-24T06:00:07;78.65;;;48.35;;
54545;SDS011;40444;45.184;9.850;2022-12-24T06:02:38;72.68;;;47.45;;
54545;SDS011;40444;45.184;9.850;2022-12-24T06:05:06;78.05;;;48.88;;
54545;SDS011;40444;45.184;9.850;2022-12-24T06:07:35;82.82;;;49.28;;
